sensor_id;sensor_type;location;lat;lon;timestamp;temperature;humidity
64143;DHT22;50437;51.970;5.904;2023-04-09T00:00:11;10.10;99.90
64143;DHT22;50437;51.970;5.904;2023-04-09T00:02:40;10.10;99.90
64143;DHT22;50437;51.970;5.904;2023-04-09T00:05:06;10.10;99.90
64143;DHT22;50437;51.970;5.904;2023-04-09T00:07:32;10.20;99.90
64143;DHT22;50437;51.970;5.904;2023-04-09T00:09:58;10.00;99.90
64143;DHT22;50437;51.970;5.904;2023-04-09T00:12:24;10.10;99.90
64143;DHT22;50437;51.970;5.904;2023-04-09T00:14:50;10.00;99.90
64143;DHT22;50437;51.970;5.904;2023-04-09T00:17:16;10.10;99.90
64143;DHT22;50437;51.970;5.904;2023-04-09T00:19:42;10.10;99.90
64143;DHT22;50437;51.970;5.904;2023-04-09T00:22:08;10.00;99.90
64143;DHT22;50437;51.970;5.904;2023-04-09T00:24:34;10.00;99.90
64143;DHT22;50437;51.970;5.904;2023-04-09T00:27:00;10.00;99.90
64143;DHT22;50437;51.970;5.904;2023-04-09T00:29:26;10.00;99.90
64143;DHT22;50437;51.970;5.904;2023-04-09T00:31:52;10.00;99.90
64143;DHT22;50437;51.970;5.904;2023-04-09T00:34:18;10.00;99.90
64143;DHT22;50437;51.970;5.904;2023-04-09T00:36:44;10.10;99.90
64143;DHT22;50437;51.970;5.904;2023-04-09T00:39:10;10.00;99.90
64143;DHT22;50437;51.970;5.904;2023-04-09T00:41:36;10.00;99.90
64143;DHT22;50437;51.970;5.904;2023-04-09T00:44:02;10.00;99.90
64143;DHT22;50437;51.970;5.904;2023-04-09T00:46:28;10.00;99.90
64143;DHT22;50437;51.970;5.904;2023-04-09T00:48:55;9.90;99.90
64143;DHT22;50437;51.970;5.904;2023-04-09T00:51:21;9.90;99.90
64143;DHT22;50437;51.970;5.904;2023-04-09T00:53:47;9.90;99.90
64143;DHT22;50437;51.970;5.904;2023-04-09T00:56:14;9.80;99.90
64143;DHT22;50437;51.970;5.904;2023-04-09T00:58:41;9.90;99.90
64143;DHT22;50437;51.970;5.904;2023-04-09T01:01:07;9.90;99.90
64143;DHT22;50437;51.970;5.904;2023-04-09T01:03:33;9.80;99.90
64143;DHT22;50437;51.970;5.904;2023-04-09T01:06:05;9.90;99.90
64143;DHT22;50437;51.970;5.904;2023-04-09T01:11:05;9.80;99.90
64143;DHT22;50437;51.970;5.904;2023-04-09T01:13:34;9.90;99.90
64143;DHT22;50437;51.970;5.904;2023-04-09T01:16:04;9.80;99.90
64143;DHT22;50437;51.970;5.904;2023-04-09T01:18:35;9.80;99.90
64143;DHT22;50437;51.970;5.904;2023-04-09T01:21:08;9.80;99.90
64143;DHT22;50437;51.970;5.904;2023-04-09T01:26:21;9.80;99.90
64143;DHT22;50437;51.970;5.904;2023-04-09T01:28:53;9.90;99.90
64143;DHT22;50437;51.970;5.904;2023-04-09T01:31:24;9.80;99.90
64143;DHT22;50437;51.970;5.904;2023-04-09T01:33:51;9.90;99.90
64143;DHT22;50437;51.970;5.904;2023-04-09T01:36:17;9.80;99.90
64143;DHT22;50437;51.970;5.904;2023-04-09T01:38:43;9.80;99.90
64143;DHT22;50437;51.970;5.904;2023-04-09T01:41:14;9.80;99.90
64143;DHT22;50437;51.970;5.904;2023-04-09T01:43:42;9.80;99.90
64143;DHT22;50437;51.970;5.904;2023-04-09T01:46:08;9.90;99.90
64143;DHT22;50437;51.970;5.904;2023-04-09T01:48:35;9.90;99.90
64143;DHT22;50437;51.970;5.904;2023-04-09T01:51:01;9.80;99.90
64143;DHT22;50437;51.970;5.904;2023-04-09T01:53:28;9.80;99.90
64143;DHT22;50437;51.970;5.904;2023-04-09T01:55:59;9.70;99.90
64143;DHT22;50437;51.970;5.904;2023-04-09T01:58:26;9.70;99.90
64143;DHT22;50437;51.970;5.904;2023-04-09T02:00:56;9.70;99.90
64143;DHT22;50437;51.970;5.904;2023-04-09T02:03:25;9.70;99.90
64143;DHT22;50437;51.970;5.904;2023-04-09T02:06:04;9.80;99.90
64143;DHT22;50437;51.970;5.904;2023-04-09T02:08:32;9.80;99.90
64143;DHT22;50437;51.970;5.904;2023-04-09T02:10:59;9.80;99.90
64143;DHT22;50437;51.970;5.904;2023-04-09T02:13:28;9.70;99.90
64143;DHT22;50437;51.970;5.904;2023-04-09T02:15:55;9.70;99.90
64143;DHT22;50437;51.970;5.904;2023-04-09T02:18:22;9.70;99.90
64143;DHT22;50437;51.970;5.904;2023-04-09T02:20:48;9.80;99.90
64143;DHT22;50437;51.970;5.904;2023-04-09T02:23:14;9.80;99.90
64143;DHT22;50437;51.970;5.904;2023-04-09T02:25:41;9.70;99.90
64143;DHT22;50437;51.970;5.904;2023-04-09T02:28:07;9.80;99.90
64143;DHT22;50437;51.970;5.904;2023-04-09T02:30:33;9.80;99.90
64143;DHT22;50437;51.970;5.904;2023-04-09T02:32:59;9.80;99.90
64143;DHT22;50437;51.970;5.904;2023-04-09T02:35:25;9.70;99.90
64143;DHT22;50437;51.970;5.904;2023-04-09T02:37:51;9.70;99.90
64143;DHT22;50437;51.970;5.904;2023-04-09T02:40:17;9.80;99.90
64143;DHT22;50437;51.970;5.904;2023-04-09T02:42:43;9.80;99.90
64143;DHT22;50437;51.970;5.904;2023-04-09T02:45:09;9.80;99.90
64143;DHT22;50437;51.970;5.904;2023-04-09T02:47:35;9.70;99.90
64143;DHT22;50437;51.970;5.904;2023-04-09T02:50:01;9.60;99.90
64143;DHT22;50437;51.970;5.904;2023-04-09T02:52:29;9.60;99.90
64143;DHT22;50437;51.970;5.904;2023-04-09T02:54:55;9.60;99.90
64143;DHT22;50437;51.970;5.904;2023-04-09T02:57:22;9.60;99.90
64143;DHT22;50437;51.970;5.904;2023-04-09T02:59:47;9.60;99.90
64143;DHT22;50437;51.970;5.904;2023-04-09T03:02:13;9.60;99.90
64143;DHT22;50437;51.970;5.904;2023-04-09T03:04:40;9.60;99.90
64143;DHT22;50437;51.970;5.904;2023-04-09T03:07:06;9.60;99.90
64143;DHT22;50437;51.970;5.904;2023-04-09T03:09:32;9.60;99.90
64143;DHT22;50437;51.970;5.904;2023-04-09T03:11:57;9.60;99.90
64143;DHT22;50437;51.970;5.904;2023-04-09T03:14:23;9.60;99.90
64143;DHT22;50437;51.970;5.904;2023-04-09T03:16:49;9.60;99.90
64143;DHT22;50437;51.970;5.904;2023-04-09T03:19:15;9.50;99.90
64143;DHT22;50437;51.970;5.904;2023-04-09T03:21:41;9.50;99.90
64143;DHT22;50437;51.970;5.904;2023-04-09T03:24:07;9.50;99.90
64143;DHT22;50437;51.970;5.904;2023-04-09T03:26:33;9.50;99.90
64143;DHT22;50437;51.970;5.904;2023-04-09T03:29:04;9.40;99.90
64143;DHT22;50437;51.970;5.904;2023-04-09T03:31:31;9.40;99.90
64143;DHT22;50437;51.970;5.904;2023-04-09T03:33:57;9.40;99.90
64143;DHT22;50437;51.970;5.904;2023-04-09T03:36:24;9.40;99.90
64143;DHT22;50437;51.970;5.904;2023-04-09T03:39:02;9.40;99.90
64143;DHT22;50437;51.970;5.904;2023-04-09T03:41:35;9.40;99.90
64143;DHT22;50437;51.970;5.904;2023-04-09T03:44:04;9.40;99.90
64143;DHT22;50437;51.970;5.904;2023-04-09T03:46:38;9.30;99.90
64143;DHT22;50437;51.970;5.904;2023-04-09T03:49:06;9.30;99.90
64143;DHT22;50437;51.970;5.904;2023-04-09T03:51:37;9.30;99.90
64143;DHT22;50437;51.970;5.904;2023-04-09T03:54:03;9.20;99.90
64143;DHT22;50437;51.970;5.904;2023-04-09T03:56:30;9.20;99.90
64143;DHT22;50437;51.970;5.904;2023-04-09T03:58:56;9.20;99.90
64143;DHT22;50437;51.970;5.904;2023-04-09T04:01:31;9.20;99.90
64143;DHT22;50437;51.970;5.904;2023-04-09T04:03:59;9.30;99.90
64143;DHT22;50437;51.970;5.904;2023-04-09T04:06:32;9.30;99.90
64143;DHT22;50437;51.970;5.904;2023-04-09T04:09:06;9.30;99.90
64143;DHT22;50437;51.970;5.904;2023-04-09T04:11:40;9.20;99.90
64143;DHT22;50437;51.970;5.904;2023-04-09T04:14:06;9.20;99.90
64143;DHT22;50437;51.970;5.904;2023-04-09T04:16:32;9.20;99.90
64143;DHT22;50437;51.970;5.904;2023-04-09T04:19:00;9.10;99.90
64143;DHT22;50437;51.970;5.904;2023-04-09T04:21:28;9.10;99.90
64143;DHT22;50437;51.970;5.904;2023-04-09T04:23:58;9.00;99.90
64143;DHT22;50437;51.970;5.904;2023-04-09T04:26:27;9.10;99.90
64143;DHT22;50437;51.970;5.904;2023-04-09T04:28:53;9.10;99.90
64143;DHT22;50437;51.970;5.904;2023-04-09T04:31:37;9.00;99.90
64143;DHT22;50437;51.970;5.904;2023-04-09T04:34:03;8.90;99.90
64143;DHT22;50437;51.970;5.904;2023-04-09T04:36:30;8.90;99.90
64143;DHT22;50437;51.970;5.904;2023-04-09T04:38:56;8.90;99.90
64143;DHT22;50437;51.970;5.904;2023-04-09T04:41:30;8.80;99.90
64143;DHT22;50437;51.970;5.904;2023-04-09T04:44:07;8.80;99.90
64143;DHT22;50437;51.970;5.904;2023-04-09T04:46:33;8.70;99.90
64143;DHT22;50437;51.970;5.904;2023-04-09T04:48:59;8.80;99.90
64143;DHT22;50437;51.970;5.904;2023-04-09T04:51:26;8.80;99.90
64143;DHT22;50437;51.970;5.904;2023-04-09T04:54:01;8.70;99.90
64143;DHT22;50437;51.970;5.904;2023-04-09T04:56:27;8.70;99.90
64143;DHT22;50437;51.970;5.904;2023-04-09T04:59:16;8.70;99.90
64143;DHT22;50437;51.970;5.904;2023-04-09T05:01:58;8.70;99.90
64143;DHT22;50437;51.970;5.904;2023-04-09T05:04:26;8.50;99.90
64143;DHT22;50437;51.970;5.904;2023-04-09T05:06:54;8.50;99.90
64143;DHT22;50437;51.970;5.904;2023-04-09T05:09:21;8.40;99.90
64143;DHT22;50437;51.970;5.904;2023-04-09T05:11:58;8.30;99.90
64143;DHT22;50437;51.970;5.904;2023-04-09T05:14:24;8.20;99.90
64143;DHT22;50437;51.970;5.904;2023-04-09T05:16:50;8.10;99.90
64143;DHT22;50437;51.970;5.904;2023-04-09T05:19:21;8.00;99.90
64143;DHT22;50437;51.970;5.904;2023-04-09T05:21:47;7.90;99.90
64143;DHT22;50437;51.970;5.904;2023-04-09T05:24:20;7.90;99.90
64143;DHT22;50437;51.970;5.904;2023-04-09T05:26:46;7.90;99.90
64143;DHT22;50437;51.970;5.904;2023-04-09T05:29:12;7.80;99.90
64143;DHT22;50437;51.970;5.904;2023-04-09T05:31:38;7.80;99.90
64143;DHT22;50437;51.970;5.904;2023-04-09T05:34:09;7.70;99.90
64143;DHT22;50437;51.970;5.904;2023-04-09T05:36:45;7.70;99.90
64143;DHT22;50437;51.970;5.904;2023-04-09T05:39:11;7.70;99.90
64143;DHT22;50437;51.970;5.904;2023-04-09T05:41:37;7.70;99.90
64143;DHT22;50437;51.970;5.904;2023-04-09T05:44:19;7.60;99.90
64143;DHT22;50437;51.970;5.904;2023-04-09T05:46:45;7.60;99.90
64143;DHT22;50437;51.970;5.904;2023-04-09T05:49:14;7.60;99.90
64143;DHT22;50437;51.970;5.904;2023-04-09T05:51:42;7.60;99.90
64143;DHT22;50437;51.970;5.904;2023-04-09T05:54:09;7.80;99.90
64143;DHT22;50437;51.970;5.904;2023-04-09T05:56:37;7.90;99.90
64143;DHT22;50437;51.970;5.904;2023-04-09T05:59:04;8.00;99.90
64143;DHT22;50437;51.970;5.904;2023-04-09T06:01:30;8.00;99.90
64143;DHT22;50437;51.970;5.904;2023-04-09T06:03:56;8.10;99.90
64143;DHT22;50437;51.970;5.904;2023-04-09T06:06:22;8.10;99.90
64143;DHT22;50437;51.970;5.904;2023-04-09T06:08:47;8.00;99.90
64143;DHT22;50437;51.970;5.904;2023-04-09T06:11:13;8.00;99.90
64143;DHT22;50437;51.970;5.904;2023-04-09T06:13:40;8.00;99.90
64143;DHT22;50437;51.970;5.904;2023-04-09T06:16:06;8.00;99.90
64143;DHT22;50437;51.970;5.904;2023-04-09T06:18:33;7.90;99.90
64143;DHT22;50437;51.970;5.904;2023-04-09T06:23:28;7.90;99.90
64143;DHT22;50437;51.970;5.904;2023-04-09T06:25:54;7.90;99.90
64143;DHT22;50437;51.970;5.904;2023-04-09T06:28:20;7.80;99.90
64143;DHT22;50437;51.970;5.904;2023-04-09T06:30:46;7.80;99.90
64143;DHT22;50437;51.970;5.904;2023-04-09T06:33:13;7.80;99.90
64143;DHT22;50437;51.970;5.904;2023-04-09T06:35:39;7.80;99.90
64143;DHT22;50437;51.970;5.904;2023-04-09T06:38:05;7.80;99.90
64143;DHT22;50437;51.970;5.904;2023-04-09T06:40:31;7.80;99.90
64143;DHT22;50437;51.970;5.904;2023-04-09T06:42:57;7.80;99.90
64143;DHT22;50437;51.970;5.904;2023-04-09T06:45:29;7.90;99.90
64143;DHT22;50437;51.970;5.904;2023-04-09T06:47:56;7.90;99.90
64143;DHT22;50437;51.970;5.904;2023-04-09T06:50:21;8.10;99.90
64143;DHT22;50437;51.970;5.904;2023-04-09T06:52:47;8.00;99.90
64143;DHT22;50437;51.970;5.904;2023-04-09T06:55:19;8.10;99.90
64143;DHT22;50437;51.970;5.904;2023-04-09T06:57:46;8.20;99.90
64143;DHT22;50437;51.970;5.904;2023-04-09T07:00:12;8.10;99.90
64143;DHT22;50437;51.970;5.904;2023-04-09T07:02:38;8.20;99.90
64143;DHT22;50437;51.970;5.904;2023-04-09T07:05:04;8.20;99.90
64143;DHT22;50437;51.970;5.904;2023-04-09T07:07:30;8.20;99.90
64143;DHT22;50437;51.970;5.904;2023-04-09T07:09:56;8.30;99.90
64143;DHT22;50437;51.970;5.904;2023-04-09T07:12:29;8.30;99.90
64143;DHT22;50437;51.970;5.904;2023-04-09T07:14:59;8.40;99.90
64143;DHT22;50437;51.970;5.904;2023-04-09T07:17:25;8.40;99.90
64143;DHT22;50437;51.970;5.904;2023-04-09T07:19:51;8.50;99.90
64143;DHT22;50437;51.970;5.904;2023-04-09T07:22:22;8.40;99.90
64143;DHT22;50437;51.970;5.904;2023-04-09T07:24:48;8.50;99.90
64143;DHT22;50437;51.970;5.904;2023-04-09T07:27:18;8.50;99.90
64143;DHT22;50437;51.970;5.904;2023-04-09T07:29:45;8.50;99.90
64143;DHT22;50437;51.970;5.904;2023-04-09T07:32:26;8.50;99.90
64143;DHT22;50437;51.970;5.904;2023-04-09T07:34:58;8.50;99.90
64143;DHT22;50437;51.970;5.904;2023-04-09T07:37:24;8.60;99.90
64143;DHT22;50437;51.970;5.904;2023-04-09T07:39:50;8.80;99.90
64143;DHT22;50437;51.970;5.904;2023-04-09T07:42:16;8.70;99.90
64143;DHT22;50437;51.970;5.904;2023-04-09T07:44:42;8.80;99.90
64143;DHT22;50437;51.970;5.904;2023-04-09T07:47:08;8.90;99.90
64143;DHT22;50437;51.970;5.904;2023-04-09T07:49:36;8.90;99.90
64143;DHT22;50437;51.970;5.904;2023-04-09T07:52:03;8.90;99.90
64143;DHT22;50437;51.970;5.904;2023-04-09T07:54:29;9.00;99.90
64143;DHT22;50437;51.970;5.904;2023-04-09T07:56:56;9.10;99.90
64143;DHT22;50437;51.970;5.904;2023-04-09T07:59:22;9.10;99.90
64143;DHT22;50437;51.970;5.904;2023-04-09T08:01:48;9.20;99.90
64143;DHT22;50437;51.970;5.904;2023-04-09T08:04:15;9.30;99.90
64143;DHT22;50437;51.970;5.904;2023-04-09T08:06:41;9.30;99.90
64143;DHT22;50437;51.970;5.904;2023-04-09T08:09:07;9.40;99.90
64143;DHT22;50437;51.970;5.904;2023-04-09T08:11:33;9.60;99.90
64143;DHT22;50437;51.970;5.904;2023-04-09T08:13:59;9.60;99.90
64143;DHT22;50437;51.970;5.904;2023-04-09T08:16:29;9.70;99.90
64143;DHT22;50437;51.970;5.904;2023-04-09T08:18:55;9.70;99.90
64143;DHT22;50437;51.970;5.904;2023-04-09T08:21:22;9.80;99.90
64143;DHT22;50437;51.970;5.904;2023-04-09T08:23:47;10.20;99.90
64143;DHT22;50437;51.970;5.904;2023-04-09T08:26:13;11.90;99.90
64143;DHT22;50437;51.970;5.904;2023-04-09T08:28:40;13.20;99.90
64143;DHT22;50437;51.970;5.904;2023-04-09T08:31:07;14.60;99.90
64143;DHT22;50437;51.970;5.904;2023-04-09T08:33:34;15.40;99.20
64143;DHT22;50437;51.970;5.904;2023-04-09T08:36:00;15.50;95.00
64143;DHT22;50437;51.970;5.904;2023-04-09T08:38:26;16.10;90.30
64143;DHT22;50437;51.970;5.904;2023-04-09T08:40:52;16.00;87.80
64143;DHT22;50437;51.970;5.904;2023-04-09T08:43:18;16.50;85.30
64143;DHT22;50437;51.970;5.904;2023-04-09T08:45:46;16.60;78.70
64143;DHT22;50437;51.970;5.904;2023-04-09T08:48:12;17.30;79.10
64143;DHT22;50437;51.970;5.904;2023-04-09T08:50:38;17.50;72.50
64143;DHT22;50437;51.970;5.904;2023-04-09T08:53:05;17.40;66.80
64143;DHT22;50437;51.970;5.904;2023-04-09T08:55:31;17.70;64.80
64143;DHT22;50437;51.970;5.904;2023-04-09T08:57:59;18.20;63.40
64143;DHT22;50437;51.970;5.904;2023-04-09T09:00:25;18.60;59.50
64143;DHT22;50437;51.970;5.904;2023-04-09T09:03:05;18.90;61.60
64143;DHT22;50437;51.970;5.904;2023-04-09T09:05:35;18.50;58.40
64143;DHT22;50437;51.970;5.904;2023-04-09T09:08:01;18.10;59.00
64143;DHT22;50437;51.970;5.904;2023-04-09T09:10:43;18.50;55.70
64143;DHT22;50437;51.970;5.904;2023-04-09T09:13:14;18.60;57.10
64143;DHT22;50437;51.970;5.904;2023-04-09T09:15:41;19.20;56.90
64143;DHT22;50437;51.970;5.904;2023-04-09T09:18:07;19.30;53.30
64143;DHT22;50437;51.970;5.904;2023-04-09T09:20:33;19.30;54.60
64143;DHT22;50437;51.970;5.904;2023-04-09T09:22:58;19.60;54.70
64143;DHT22;50437;51.970;5.904;2023-04-09T09:25:25;19.90;53.90
64143;DHT22;50437;51.970;5.904;2023-04-09T09:27:51;20.00;53.00
64143;DHT22;50437;51.970;5.904;2023-04-09T09:30:26;20.80;52.10
64143;DHT22;50437;51.970;5.904;2023-04-09T09:32:53;19.60;49.30
64143;DHT22;50437;51.970;5.904;2023-04-09T09:35:19;19.50;52.70
64143;DHT22;50437;51.970;5.904;2023-04-09T09:37:45;19.50;51.80
64143;DHT22;50437;51.970;5.904;2023-04-09T09:40:11;19.50;52.20
64143;DHT22;50437;51.970;5.904;2023-04-09T09:42:54;20.20;52.70
64143;DHT22;50437;51.970;5.904;2023-04-09T09:45:21;20.90;48.50
64143;DHT22;50437;51.970;5.904;2023-04-09T09:47:48;20.10;49.50
64143;DHT22;50437;51.970;5.904;2023-04-09T09:50:14;20.20;48.60
64143;DHT22;50437;51.970;5.904;2023-04-09T09:52:40;20.30;47.70
64143;DHT22;50437;51.970;5.904;2023-04-09T09:55:07;20.70;48.80
64143;DHT22;50437;51.970;5.904;2023-04-09T09:57:34;20.30;48.40
64143;DHT22;50437;51.970;5.904;2023-04-09T10:00:03;20.40;46.20
64143;DHT22;50437;51.970;5.904;2023-04-09T10:02:40;20.70;47.00
64143;DHT22;50437;51.970;5.904;2023-04-09T10:05:08;20.50;44.40
64143;DHT22;50437;51.970;5.904;2023-04-09T10:07:34;21.20;45.00
64143;DHT22;50437;51.970;5.904;2023-04-09T10:10:02;21.10;45.10
64143;DHT22;50437;51.970;5.904;2023-04-09T10:12:29;21.00;44.40
64143;DHT22;50437;51.970;5.904;2023-04-09T10:14:56;21.40;46.20
64143;DHT22;50437;51.970;5.904;2023-04-09T10:17:22;21.40;43.10
64143;DHT22;50437;51.970;5.904;2023-04-09T10:22:30;21.60;43.10
64143;DHT22;50437;51.970;5.904;2023-04-09T10:24:56;20.90;43.60
64143;DHT22;50437;51.970;5.904;2023-04-09T10:27:22;20.90;44.40
64143;DHT22;50437;51.970;5.904;2023-04-09T10:29:50;20.50;43.80
64143;DHT22;50437;51.970;5.904;2023-04-09T10:32:20;20.80;44.00
64143;DHT22;50437;51.970;5.904;2023-04-09T10:34:46;20.70;44.60
64143;DHT22;50437;51.970;5.904;2023-04-09T10:37:15;21.50;43.20
64143;DHT22;50437;51.970;5.904;2023-04-09T10:39:45;22.00;42.60
64143;DHT22;50437;51.970;5.904;2023-04-09T10:42:22;21.10;43.30
64143;DHT22;50437;51.970;5.904;2023-04-09T10:45:11;21.80;40.90
64143;DHT22;50437;51.970;5.904;2023-04-09T10:47:39;21.20;42.60
64143;DHT22;50437;51.970;5.904;2023-04-09T10:50:24;20.90;41.10
64143;DHT22;50437;51.970;5.904;2023-04-09T10:52:52;20.90;41.40
64143;DHT22;50437;51.970;5.904;2023-04-09T10:58:04;20.50;41.00
64143;DHT22;50437;51.970;5.904;2023-04-09T11:00:32;20.90;40.20
64143;DHT22;50437;51.970;5.904;2023-04-09T11:05:31;20.80;40.30
64143;DHT22;50437;51.970;5.904;2023-04-09T11:08:11;20.50;42.00
64143;DHT22;50437;51.970;5.904;2023-04-09T11:10:41;20.90;39.90
64143;DHT22;50437;51.970;5.904;2023-04-09T11:13:15;20.60;40.50
64143;DHT22;50437;51.970;5.904;2023-04-09T11:15:42;20.50;41.10
64143;DHT22;50437;51.970;5.904;2023-04-09T11:18:09;20.70;41.40
64143;DHT22;50437;51.970;5.904;2023-04-09T11:20:39;21.00;40.60
64143;DHT22;50437;51.970;5.904;2023-04-09T11:23:05;20.90;40.70
64143;DHT22;50437;51.970;5.904;2023-04-09T11:25:31;20.80;39.60
64143;DHT22;50437;51.970;5.904;2023-04-09T11:27:58;20.90;39.80
64143;DHT22;50437;51.970;5.904;2023-04-09T11:30:24;20.30;42.30
64143;DHT22;50437;51.970;5.904;2023-04-09T11:32:51;20.30;39.30
64143;DHT22;50437;51.970;5.904;2023-04-09T11:35:18;20.30;37.40
64143;DHT22;50437;51.970;5.904;2023-04-09T11:37:44;20.50;39.90
64143;DHT22;50437;51.970;5.904;2023-04-09T11:42:43;20.90;41.20
64143;DHT22;50437;51.970;5.904;2023-04-09T11:45:09;20.60;38.40
64143;DHT22;50437;51.970;5.904;2023-04-09T11:47:37;20.00;37.50
64143;DHT22;50437;51.970;5.904;2023-04-09T11:50:04;20.40;39.70
64143;DHT22;50437;51.970;5.904;2023-04-09T11:52:31;20.20;37.60
64143;DHT22;50437;51.970;5.904;2023-04-09T11:55:03;20.30;39.60
64143;DHT22;50437;51.970;5.904;2023-04-09T11:57:40;20.30;39.10
64143;DHT22;50437;51.970;5.904;2023-04-09T12:00:11;19.80;40.00
64143;DHT22;50437;51.970;5.904;2023-04-09T12:02:38;19.50;36.80
64143;DHT22;50437;51.970;5.904;2023-04-09T12:05:06;19.90;38.60
64143;DHT22;50437;51.970;5.904;2023-04-09T12:07:32;20.00;39.00
64143;DHT22;50437;51.970;5.904;2023-04-09T12:10:02;19.90;39.50
64143;DHT22;50437;51.970;5.904;2023-04-09T12:12:28;20.00;39.60
64143;DHT22;50437;51.970;5.904;2023-04-09T12:14:54;19.90;39.70
64143;DHT22;50437;51.970;5.904;2023-04-09T12:17:23;19.40;39.70
64143;DHT22;50437;51.970;5.904;2023-04-09T12:19:49;19.40;41.00
64143;DHT22;50437;51.970;5.904;2023-04-09T12:22:15;19.20;40.90
64143;DHT22;50437;51.970;5.904;2023-04-09T12:24:41;19.40;41.30
64143;DHT22;50437;51.970;5.904;2023-04-09T12:27:07;19.30;39.50
64143;DHT22;50437;51.970;5.904;2023-04-09T12:29:35;19.30;43.20
64143;DHT22;50437;51.970;5.904;2023-04-09T12:32:01;19.50;43.80
64143;DHT22;50437;51.970;5.904;2023-04-09T12:34:27;19.40;44.20
64143;DHT22;50437;51.970;5.904;2023-04-09T12:36:53;18.90;43.10
64143;DHT22;50437;51.970;5.904;2023-04-09T12:39:19;19.40;44.20
64143;DHT22;50437;51.970;5.904;2023-04-09T12:41:45;19.00;44.00
64143;DHT22;50437;51.970;5.904;2023-04-09T12:44:11;18.70;44.60
64143;DHT22;50437;51.970;5.904;2023-04-09T12:46:39;18.90;46.80
64143;DHT22;50437;51.970;5.904;2023-04-09T12:49:06;19.00;45.40
64143;DHT22;50437;51.970;5.904;2023-04-09T12:51:32;18.70;46.40
64143;DHT22;50437;51.970;5.904;2023-04-09T12:53:58;18.30;47.70
64143;DHT22;50437;51.970;5.904;2023-04-09T12:56:24;18.60;45.50
64143;DHT22;50437;51.970;5.904;2023-04-09T12:58:52;18.10;46.00
64143;DHT22;50437;51.970;5.904;2023-04-09T13:01:18;18.30;46.00
64143;DHT22;50437;51.970;5.904;2023-04-09T13:03:45;18.40;45.80
64143;DHT22;50437;51.970;5.904;2023-04-09T13:06:11;18.60;46.70
64143;DHT22;50437;51.970;5.904;2023-04-09T13:08:36;18.40;46.60
64143;DHT22;50437;51.970;5.904;2023-04-09T13:11:02;18.50;46.70
64143;DHT22;50437;51.970;5.904;2023-04-09T13:13:29;18.60;47.00
64143;DHT22;50437;51.970;5.904;2023-04-09T13:15:55;18.60;47.40
64143;DHT22;50437;51.970;5.904;2023-04-09T13:18:21;18.60;46.40
64143;DHT22;50437;51.970;5.904;2023-04-09T13:20:47;18.60;49.30
64143;DHT22;50437;51.970;5.904;2023-04-09T13:23:13;18.90;46.00
64143;DHT22;50437;51.970;5.904;2023-04-09T13:25:40;18.90;46.30
64143;DHT22;50437;51.970;5.904;2023-04-09T13:28:06;18.90;46.30
64143;DHT22;50437;51.970;5.904;2023-04-09T13:30:32;18.90;44.50
64143;DHT22;50437;51.970;5.904;2023-04-09T13:32:58;18.50;46.70
64143;DHT22;50437;51.970;5.904;2023-04-09T13:35:24;18.60;46.80
64143;DHT22;50437;51.970;5.904;2023-04-09T13:37:50;18.50;45.80
64143;DHT22;50437;51.970;5.904;2023-04-09T13:40:15;18.10;46.90
64143;DHT22;50437;51.970;5.904;2023-04-09T13:42:41;18.00;48.20
64143;DHT22;50437;51.970;5.904;2023-04-09T13:45:08;17.80;47.30
64143;DHT22;50437;51.970;5.904;2023-04-09T13:47:34;18.10;47.90
64143;DHT22;50437;51.970;5.904;2023-04-09T13:50:01;18.40;45.60
64143;DHT22;50437;51.970;5.904;2023-04-09T13:52:27;18.70;45.00
64143;DHT22;50437;51.970;5.904;2023-04-09T13:54:59;18.50;46.40
64143;DHT22;50437;51.970;5.904;2023-04-09T13:57:25;18.80;45.40
64143;DHT22;50437;51.970;5.904;2023-04-09T13:59:52;18.30;45.70
64143;DHT22;50437;51.970;5.904;2023-04-09T14:02:18;18.10;46.40
64143;DHT22;50437;51.970;5.904;2023-04-09T14:04:44;18.10;47.70
64143;DHT22;50437;51.970;5.904;2023-04-09T14:07:10;17.90;45.80
64143;DHT22;50437;51.970;5.904;2023-04-09T14:09:36;18.00;46.50
64143;DHT22;50437;51.970;5.904;2023-04-09T14:12:02;18.20;47.10
64143;DHT22;50437;51.970;5.904;2023-04-09T14:14:28;18.00;46.10
64143;DHT22;50437;51.970;5.904;2023-04-09T14:16:54;18.30;47.00
64143;DHT22;50437;51.970;5.904;2023-04-09T14:19:23;18.10;46.70
64143;DHT22;50437;51.970;5.904;2023-04-09T14:21:49;17.70;46.80
64143;DHT22;50437;51.970;5.904;2023-04-09T14:24:17;17.40;46.20
64143;DHT22;50437;51.970;5.904;2023-04-09T14:26:44;17.60;47.40
64143;DHT22;50437;51.970;5.904;2023-04-09T14:29:11;17.90;46.70
64143;DHT22;50437;51.970;5.904;2023-04-09T14:31:37;17.90;47.40
64143;DHT22;50437;51.970;5.904;2023-04-09T14:34:03;17.50;45.60
64143;DHT22;50437;51.970;5.904;2023-04-09T14:36:35;17.40;46.70
64143;DHT22;50437;51.970;5.904;2023-04-09T14:39:01;17.70;46.90
64143;DHT22;50437;51.970;5.904;2023-04-09T14:41:27;17.70;46.00
64143;DHT22;50437;51.970;5.904;2023-04-09T14:43:53;17.90;46.30
64143;DHT22;50437;51.970;5.904;2023-04-09T14:46:19;18.30;47.80
64143;DHT22;50437;51.970;5.904;2023-04-09T14:48:45;18.30;45.20
64143;DHT22;50437;51.970;5.904;2023-04-09T14:51:11;18.20;45.90
64143;DHT22;50437;51.970;5.904;2023-04-09T14:53:37;18.50;45.30
64143;DHT22;50437;51.970;5.904;2023-04-09T14:56:03;18.50;45.70
64143;DHT22;50437;51.970;5.904;2023-04-09T14:58:29;18.20;45.00
64143;DHT22;50437;51.970;5.904;2023-04-09T15:00:55;18.10;47.40
64143;DHT22;50437;51.970;5.904;2023-04-09T15:03:22;18.10;45.40
64143;DHT22;50437;51.970;5.904;2023-04-09T15:05:48;18.20;45.90
64143;DHT22;50437;51.970;5.904;2023-04-09T15:08:14;17.80;45.90
64143;DHT22;50437;51.970;5.904;2023-04-09T15:10:40;17.30;47.10
64143;DHT22;50437;51.970;5.904;2023-04-09T15:13:06;16.90;46.40
64143;DHT22;50437;51.970;5.904;2023-04-09T15:15:32;16.90;47.60
64143;DHT22;50437;51.970;5.904;2023-04-09T15:17:58;16.70;47.70
64143;DHT22;50437;51.970;5.904;2023-04-09T15:20:30;17.00;46.50
64143;DHT22;50437;51.970;5.904;2023-04-09T15:22:56;17.20;47.10
64143;DHT22;50437;51.970;5.904;2023-04-09T15:25:23;16.90;46.70
64143;DHT22;50437;51.970;5.904;2023-04-09T15:27:49;17.00;47.70
64143;DHT22;50437;51.970;5.904;2023-04-09T15:30:15;17.10;47.20
64143;DHT22;50437;51.970;5.904;2023-04-09T15:32:41;17.10;47.50
64143;DHT22;50437;51.970;5.904;2023-04-09T15:35:07;17.20;47.20
64143;DHT22;50437;51.970;5.904;2023-04-09T15:37:33;17.30;46.20
64143;DHT22;50437;51.970;5.904;2023-04-09T15:40:02;17.10;46.00
64143;DHT22;50437;51.970;5.904;2023-04-09T15:42:28;17.30;45.30
64143;DHT22;50437;51.970;5.904;2023-04-09T15:44:54;17.20;46.00
64143;DHT22;50437;51.970;5.904;2023-04-09T15:47:20;17.40;47.00
64143;DHT22;50437;51.970;5.904;2023-04-09T15:49:46;17.40;45.20
64143;DHT22;50437;51.970;5.904;2023-04-09T15:52:12;17.30;45.20
64143;DHT22;50437;51.970;5.904;2023-04-09T15:54:38;17.40;45.10
64143;DHT22;50437;51.970;5.904;2023-04-09T15:57:04;17.40;45.40